sensor_id;sensor_type;location;lat;lon;timestamp;P1;durP1;ratioP1;P2;durP2;ratioP2
27003;SDS011;14546;47.590;19.022;2022-09-01T00:01:32;8.05;;;4.88;;
27003;SDS011;14546;47.590;19.022;2022-09-01T00:04:57;9.77;;;3.78;;
27003;SDS011;14546;47.590;19.022;2022-09-01T00:08:04;5.13;;;3.20;;
27003;SDS011;14546;47.590;19.022;2022-09-01T00:10:50;9.70;;;3.92;;
27003;SDS011;14546;47.590;19.022;2022-09-01T00:13:36;6.43;;;3.67;;
27003;SDS011;14546;47.590;19.022;2022-09-01T00:16:17;8.50;;;3.83;;
27003;SDS011;14546;47.590;19.022;2022-09-01T00:18:49;6.60;;;3.92;;
27003;SDS011;14546;47.590;19.022;2022-09-01T00:22:10;9.75;;;3.40;;
27003;SDS011;14546;47.590;19.022;2022-09-01T00:31:37;5.35;;;2.55;;
27003;SDS011;14546;47.590;19.022;2022-09-01T00:34:34;7.68;;;3.53;;
27003;SDS011;14546;47.590;19.022;2022-09-01T00:37:05;5.38;;;2.78;;
27003;SDS011;14546;47.590;19.022;2022-09-01T00:39:49;8.05;;;2.70;;
27003;SDS011;14546;47.590;19.022;2022-09-01T00:42:51;9.00;;;2.40;;
27003;SDS011;14546;47.590;19.022;2022-09-01T00:45:28;7.57;;;2.13;;
27003;SDS011;14546;47.590;19.022;2022-09-01T00:48:09;4.68;;;2.30;;
27003;SDS011;14546;47.590;19.022;2022-09-01T00:50:48;6.40;;;2.80;;
27003;SDS011;14546;47.590;19.022;2022-09-01T00:53:54;5.18;;;2.58;;
27003;SDS011;14546;47.590;19.022;2022-09-01T00:56:48;12.70;;;2.87;;
27003;SDS011;14546;47.590;19.022;2022-09-01T00:59:31;9.77;;;2.78;;
27003;SDS011;14546;47.590;19.022;2022-09-01T01:02:27;11.73;;;2.65;;
27003;SDS011;14546;47.590;19.022;2022-09-01T01:05:12;4.88;;;2.30;;
27003;SDS011;14546;47.590;19.022;2022-09-01T01:07:47;8.00;;;2.50;;
27003;SDS011;14546;47.590;19.022;2022-09-01T01:10:40;5.40;;;2.20;;
27003;SDS011;14546;47.590;19.022;2022-09-01T01:13:12;4.68;;;2.53;;
27003;SDS011;14546;47.590;19.022;2022-09-01T01:16:05;9.38;;;2.40;;
27003;SDS011;14546;47.590;19.022;2022-09-01T01:19:01;9.50;;;2.70;;
27003;SDS011;14546;47.590;19.022;2022-09-01T01:25:37;12.93;;;2.60;;
27003;SDS011;14546;47.590;19.022;2022-09-01T01:28:32;4.35;;;2.20;;
27003;SDS011;14546;47.590;19.022;2022-09-01T01:31:11;10.07;;;2.42;;
27003;SDS011;14546;47.590;19.022;2022-09-01T01:34:30;7.57;;;2.60;;
27003;SDS011;14546;47.590;19.022;2022-09-01T01:37:15;7.57;;;2.97;;
27003;SDS011;14546;47.590;19.022;2022-09-01T01:39:44;3.60;;;3.08;;
27003;SDS011;14546;47.590;19.022;2022-09-01T01:42:17;7.78;;;3.25;;
27003;SDS011;14546;47.590;19.022;2022-09-01T01:45:02;6.22;;;2.78;;
27003;SDS011;14546;47.590;19.022;2022-09-01T01:47:43;3.25;;;2.42;;
27003;SDS011;14546;47.590;19.022;2022-09-01T01:50:19;5.65;;;2.47;;
27003;SDS011;14546;47.590;19.022;2022-09-01T01:52:50;14.10;;;2.22;;
27003;SDS011;14546;47.590;19.022;2022-09-01T01:55:21;5.00;;;2.50;;
27003;SDS011;14546;47.590;19.022;2022-09-01T01:57:53;6.72;;;1.88;;
27003;SDS011;14546;47.590;19.022;2022-09-01T02:00:21;6.88;;;2.13;;
27003;SDS011;14546;47.590;19.022;2022-09-01T02:02:57;13.68;;;2.70;;
27003;SDS011;14546;47.590;19.022;2022-09-01T02:05:28;3.75;;;1.80;;
27003;SDS011;14546;47.590;19.022;2022-09-01T02:08:21;10.02;;;2.03;;
27003;SDS011;14546;47.590;19.022;2022-09-01T02:10:55;8.45;;;2.42;;
27003;SDS011;14546;47.590;19.022;2022-09-01T02:13:31;9.57;;;2.00;;
27003;SDS011;14546;47.590;19.022;2022-09-01T02:16:05;6.35;;;1.90;;
27003;SDS011;14546;47.590;19.022;2022-09-01T02:18:43;6.72;;;1.80;;
27003;SDS011;14546;47.590;19.022;2022-09-01T02:21:23;7.05;;;2.05;;
27003;SDS011;14546;47.590;19.022;2022-09-01T02:24:14;6.20;;;1.85;;
27003;SDS011;14546;47.590;19.022;2022-09-01T02:27:04;2.55;;;1.63;;
27003;SDS011;14546;47.590;19.022;2022-09-01T02:29:35;6.18;;;2.13;;
27003;SDS011;14546;47.590;19.022;2022-09-01T02:32:06;4.68;;;2.03;;
27003;SDS011;14546;47.590;19.022;2022-09-01T02:34:35;6.75;;;1.98;;
27003;SDS011;14546;47.590;19.022;2022-09-01T02:37:12;2.53;;;1.90;;
27003;SDS011;14546;47.590;19.022;2022-09-01T02:39:47;4.80;;;1.60;;
27003;SDS011;14546;47.590;19.022;2022-09-01T02:42:28;4.07;;;1.88;;
27003;SDS011;14546;47.590;19.022;2022-09-01T02:44:55;3.55;;;1.85;;
27003;SDS011;14546;47.590;19.022;2022-09-01T02:47:22;6.03;;;2.20;;
27003;SDS011;14546;47.590;19.022;2022-09-01T02:50:03;11.35;;;2.58;;
27003;SDS011;14546;47.590;19.022;2022-09-01T02:52:31;4.93;;;1.83;;
27003;SDS011;14546;47.590;19.022;2022-09-01T02:55:07;6.80;;;1.98;;
27003;SDS011;14546;47.590;19.022;2022-09-01T02:57:40;2.78;;;1.80;;
27003;SDS011;14546;47.590;19.022;2022-09-01T03:00:17;4.75;;;1.65;;
27003;SDS011;14546;47.590;19.022;2022-09-01T03:02:55;5.45;;;1.92;;
27003;SDS011;14546;47.590;19.022;2022-09-01T03:05:31;4.95;;;1.98;;
27003;SDS011;14546;47.590;19.022;2022-09-01T03:08:09;2.97;;;1.67;;
27003;SDS011;14546;47.590;19.022;2022-09-01T03:10:45;9.30;;;2.35;;
27003;SDS011;14546;47.590;19.022;2022-09-01T03:16:26;4.07;;;1.90;;
27003;SDS011;14546;47.590;19.022;2022-09-01T03:19:07;7.32;;;1.92;;
27003;SDS011;14546;47.590;19.022;2022-09-01T03:22:28;2.08;;;1.70;;
27003;SDS011;14546;47.590;19.022;2022-09-01T03:25:26;5.60;;;1.90;;
27003;SDS011;14546;47.590;19.022;2022-09-01T03:28:07;3.08;;;1.85;;
27003;SDS011;14546;47.590;19.022;2022-09-01T03:31:04;2.63;;;1.80;;
27003;SDS011;14546;47.590;19.022;2022-09-01T03:37:09;4.40;;;1.80;;
27003;SDS011;14546;47.590;19.022;2022-09-01T03:40:04;6.38;;;1.80;;
27003;SDS011;14546;47.590;19.022;2022-09-01T03:43:08;9.85;;;2.42;;
27003;SDS011;14546;47.590;19.022;2022-09-01T03:46:06;5.75;;;2.20;;
27003;SDS011;14546;47.590;19.022;2022-09-01T03:48:52;2.47;;;1.60;;
27003;SDS011;14546;47.590;19.022;2022-09-01T03:51:50;3.05;;;1.63;;
27003;SDS011;14546;47.590;19.022;2022-09-01T03:58:14;5.03;;;1.90;;
27003;SDS011;14546;47.590;19.022;2022-09-01T04:00:54;5.78;;;1.80;;
27003;SDS011;14546;47.590;19.022;2022-09-01T04:06:44;8.70;;;2.10;;
27003;SDS011;14546;47.590;19.022;2022-09-01T04:09:37;13.15;;;2.20;;
27003;SDS011;14546;47.590;19.022;2022-09-01T04:12:22;3.67;;;1.92;;
27003;SDS011;14546;47.590;19.022;2022-09-01T04:16:06;4.50;;;2.03;;
27003;SDS011;14546;47.590;19.022;2022-09-01T04:19:20;7.35;;;1.80;;
27003;SDS011;14546;47.590;19.022;2022-09-01T04:22:44;4.20;;;1.85;;
27003;SDS011;14546;47.590;19.022;2022-09-01T04:25:52;3.58;;;1.80;;
27003;SDS011;14546;47.590;19.022;2022-09-01T04:28:37;5.72;;;2.10;;
27003;SDS011;14546;47.590;19.022;2022-09-01T04:31:19;5.57;;;2.42;;
27003;SDS011;14546;47.590;19.022;2022-09-01T04:34:18;5.78;;;2.00;;
27003;SDS011;14546;47.590;19.022;2022-09-01T04:37:11;3.38;;;1.65;;
27003;SDS011;14546;47.590;19.022;2022-09-01T04:39:51;5.70;;;1.85;;
27003;SDS011;14546;47.590;19.022;2022-09-01T04:48:40;7.22;;;2.40;;
27003;SDS011;14546;47.590;19.022;2022-09-01T04:53:43;8.35;;;2.28;;
27003;SDS011;14546;47.590;19.022;2022-09-01T04:56:18;6.70;;;1.95;;
27003;SDS011;14546;47.590;19.022;2022-09-01T04:58:49;22.27;;;2.75;;
27003;SDS011;14546;47.590;19.022;2022-09-01T05:01:22;13.73;;;2.60;;
27003;SDS011;14546;47.590;19.022;2022-09-01T05:03:53;8.68;;;2.08;;
27003;SDS011;14546;47.590;19.022;2022-09-01T05:06:26;5.78;;;1.92;;
27003;SDS011;14546;47.590;19.022;2022-09-01T05:08:54;5.05;;;2.05;;
27003;SDS011;14546;47.590;19.022;2022-09-01T05:11:21;10.07;;;2.25;;
27003;SDS011;14546;47.590;19.022;2022-09-01T05:13:50;5.80;;;1.70;;
27003;SDS011;14546;47.590;19.022;2022-09-01T05:16:22;4.28;;;1.85;;
27003;SDS011;14546;47.590;19.022;2022-09-01T05:18:53;3.67;;;1.63;;
27003;SDS011;14546;47.590;19.022;2022-09-01T05:21:26;10.48;;;2.10;;
27003;SDS011;14546;47.590;19.022;2022-09-01T05:24:04;5.72;;;2.35;;
27003;SDS011;14546;47.590;19.022;2022-09-01T05:26:34;10.65;;;2.10;;
27003;SDS011;14546;47.590;19.022;2022-09-01T05:29:18;11.23;;;2.30;;
27003;SDS011;14546;47.590;19.022;2022-09-01T05:31:49;6.57;;;2.08;;
27003;SDS011;14546;47.590;19.022;2022-09-01T05:34:53;7.32;;;1.83;;
27003;SDS011;14546;47.590;19.022;2022-09-01T05:37:31;4.00;;;1.70;;
27003;SDS011;14546;47.590;19.022;2022-09-01T05:40:06;4.90;;;1.67;;
27003;SDS011;14546;47.590;19.022;2022-09-01T05:42:41;14.60;;;2.38;;
27003;SDS011;14546;47.590;19.022;2022-09-01T05:45:10;6.85;;;1.80;;
27003;SDS011;14546;47.590;19.022;2022-09-01T05:47:39;5.07;;;1.42;;
27003;SDS011;14546;47.590;19.022;2022-09-01T05:50:08;3.95;;;2.00;;
27003;SDS011;14546;47.590;19.022;2022-09-01T05:52:37;6.18;;;1.77;;
27003;SDS011;14546;47.590;19.022;2022-09-01T05:55:06;5.38;;;1.92;;
27003;SDS011;14546;47.590;19.022;2022-09-01T05:57:41;3.58;;;1.98;;
27003;SDS011;14546;47.590;19.022;2022-09-01T06:00:09;6.43;;;2.00;;
27003;SDS011;14546;47.590;19.022;2022-09-01T06:02:41;11.60;;;2.00;;
27003;SDS011;14546;47.590;19.022;2022-09-01T06:05:10;3.13;;;1.83;;
27003;SDS011;14546;47.590;19.022;2022-09-01T06:07:39;2.30;;;1.70;;
27003;SDS011;14546;47.590;19.022;2022-09-01T06:10:07;4.90;;;1.60;;
27003;SDS011;14546;47.590;19.022;2022-09-01T06:12:35;5.25;;;1.70;;
27003;SDS011;14546;47.590;19.022;2022-09-01T06:15:02;3.47;;;1.75;;
27003;SDS011;14546;47.590;19.022;2022-09-01T06:17:32;5.95;;;1.73;;
27003;SDS011;14546;47.590;19.022;2022-09-01T06:19:59;3.92;;;1.80;;
27003;SDS011;14546;47.590;19.022;2022-09-01T06:22:27;6.85;;;1.60;;
27003;SDS011;14546;47.590;19.022;2022-09-01T06:24:54;2.97;;;1.50;;
27003;SDS011;14546;47.590;19.022;2022-09-01T06:27:25;2.55;;;1.88;;
27003;SDS011;14546;47.590;19.022;2022-09-01T06:29:56;6.22;;;1.90;;
27003;SDS011;14546;47.590;19.022;2022-09-01T06:32:47;7.68;;;1.75;;
27003;SDS011;14546;47.590;19.022;2022-09-01T06:35:31;3.85;;;2.00;;
27003;SDS011;14546;47.590;19.022;2022-09-01T06:38:10;17.50;;;2.97;;
27003;SDS011;14546;47.590;19.022;2022-09-01T06:40:57;8.75;;;2.58;;
27003;SDS011;14546;47.590;19.022;2022-09-01T06:46:36;2.30;;;1.55;;
27003;SDS011;14546;47.590;19.022;2022-09-01T06:49:43;2.63;;;1.73;;
27003;SDS011;14546;47.590;19.022;2022-09-01T06:52:22;3.97;;;1.60;;
27003;SDS011;14546;47.590;19.022;2022-09-01T06:55:32;5.68;;;1.80;;
27003;SDS011;14546;47.590;19.022;2022-09-01T06:58:51;5.63;;;1.70;;
27003;SDS011;14546;47.590;19.022;2022-09-01T07:01:53;8.73;;;1.65;;
27003;SDS011;14546;47.590;19.022;2022-09-01T07:04:48;5.93;;;1.80;;
27003;SDS011;14546;47.590;19.022;2022-09-01T07:07:34;5.80;;;2.00;;
27003;SDS011;14546;47.590;19.022;2022-09-01T07:13:40;3.35;;;1.90;;
27003;SDS011;14546;47.590;19.022;2022-09-01T07:16:16;3.45;;;1.92;;
27003;SDS011;14546;47.590;19.022;2022-09-01T07:19:08;7.85;;;1.98;;
27003;SDS011;14546;47.590;19.022;2022-09-01T07:21:58;3.22;;;1.55;;
27003;SDS011;14546;47.590;19.022;2022-09-01T07:24:53;5.27;;;2.13;;
27003;SDS011;14546;47.590;19.022;2022-09-01T07:30:47;9.05;;;1.85;;
27003;SDS011;14546;47.590;19.022;2022-09-01T07:40:30;7.38;;;1.80;;
27003;SDS011;14546;47.590;19.022;2022-09-01T07:43:37;3.83;;;1.73;;
27003;SDS011;14546;47.590;19.022;2022-09-01T07:46:26;56.20;;;5.13;;
27003;SDS011;14546;47.590;19.022;2022-09-01T07:49:30;61.00;;;7.88;;
27003;SDS011;14546;47.590;19.022;2022-09-01T07:56:04;7.68;;;1.83;;
27003;SDS011;14546;47.590;19.022;2022-09-01T07:58:40;4.90;;;1.77;;
27003;SDS011;14546;47.590;19.022;2022-09-01T08:01:21;5.10;;;1.83;;
27003;SDS011;14546;47.590;19.022;2022-09-01T08:08:19;3.72;;;1.75;;
27003;SDS011;14546;47.590;19.022;2022-09-01T08:11:01;8.10;;;1.90;;
27003;SDS011;14546;47.590;19.022;2022-09-01T08:13:54;5.00;;;1.45;;
27003;SDS011;14546;47.590;19.022;2022-09-01T08:17:06;9.98;;;1.92;;
27003;SDS011;14546;47.590;19.022;2022-09-01T08:20:06;3.90;;;1.52;;
27003;SDS011;14546;47.590;19.022;2022-09-01T08:23:07;6.15;;;1.55;;
27003;SDS011;14546;47.590;19.022;2022-09-01T08:25:42;3.50;;;1.77;;
27003;SDS011;14546;47.590;19.022;2022-09-01T08:28:31;7.90;;;1.77;;
27003;SDS011;14546;47.590;19.022;2022-09-01T08:31:37;5.25;;;1.73;;
27003;SDS011;14546;47.590;19.022;2022-09-01T08:34:47;5.22;;;1.80;;
27003;SDS011;14546;47.590;19.022;2022-09-01T08:41:58;11.88;;;2.35;;
27003;SDS011;14546;47.590;19.022;2022-09-01T09:08:17;3.58;;;1.52;;
27003;SDS011;14546;47.590;19.022;2022-09-01T09:18:13;4.00;;;1.80;;
27003;SDS011;14546;47.590;19.022;2022-09-01T09:21:35;3.25;;;1.10;;
27003;SDS011;14546;47.590;19.022;2022-09-01T09:27:47;8.38;;;1.50;;
27003;SDS011;14546;47.590;19.022;2022-09-01T09:31:23;5.68;;;1.40;;
27003;SDS011;14546;47.590;19.022;2022-09-01T09:34:28;4.70;;;1.50;;
27003;SDS011;14546;47.590;19.022;2022-09-01T09:37:25;4.22;;;1.40;;
27003;SDS011;14546;47.590;19.022;2022-09-01T09:46:51;4.82;;;1.23;;
27003;SDS011;14546;47.590;19.022;2022-09-01T09:49:49;5.03;;;1.30;;
27003;SDS011;14546;47.590;19.022;2022-09-01T09:59:19;3.75;;;1.60;;
27003;SDS011;14546;47.590;19.022;2022-09-01T10:05:37;4.93;;;1.13;;
27003;SDS011;14546;47.590;19.022;2022-09-01T10:08:38;3.63;;;1.15;;
27003;SDS011;14546;47.590;19.022;2022-09-01T10:11:41;2.17;;;1.08;;
27003;SDS011;14546;47.590;19.022;2022-09-01T10:14:26;3.40;;;1.25;;
27003;SDS011;14546;47.590;19.022;2022-09-01T10:20:12;2.70;;;1.35;;
27003;SDS011;14546;47.590;19.022;2022-09-01T10:22:53;4.03;;;1.63;;
27003;SDS011;14546;47.590;19.022;2022-09-01T10:31:32;2.45;;;1.40;;
27003;SDS011;14546;47.590;19.022;2022-09-01T10:37:40;5.50;;;1.27;;
27003;SDS011;14546;47.590;19.022;2022-09-01T10:40:33;4.05;;;1.40;;
27003;SDS011;14546;47.590;19.022;2022-09-01T10:43:33;1.67;;;0.95;;
27003;SDS011;14546;47.590;19.022;2022-09-01T10:57:35;1.60;;;1.00;;
27003;SDS011;14546;47.590;19.022;2022-09-01T11:06:05;3.10;;;0.90;;
27003;SDS011;14546;47.590;19.022;2022-09-01T11:13:54;3.85;;;1.10;;
27003;SDS011;14546;47.590;19.022;2022-09-01T11:16:28;1.35;;;1.05;;
27003;SDS011;14546;47.590;19.022;2022-09-01T11:27:06;1.60;;;1.00;;
27003;SDS011;14546;47.590;19.022;2022-09-01T11:32:23;8.10;;;1.00;;
27003;SDS011;14546;47.590;19.022;2022-09-01T11:35:17;1.90;;;0.90;;
27003;SDS011;14546;47.590;19.022;2022-09-01T11:37:52;2.13;;;0.95;;
27003;SDS011;14546;47.590;19.022;2022-09-01T11:40:23;1.30;;;0.90;;
27003;SDS011;14546;47.590;19.022;2022-09-01T11:42:52;3.70;;;1.10;;
27003;SDS011;14546;47.590;19.022;2022-09-01T11:45:23;7.10;;;1.15;;
27003;SDS011;14546;47.590;19.022;2022-09-01T11:47:57;1.52;;;0.85;;
27003;SDS011;14546;47.590;19.022;2022-09-01T11:50:28;1.42;;;0.80;;
27003;SDS011;14546;47.590;19.022;2022-09-01T11:53:05;0.93;;;0.75;;
27003;SDS011;14546;47.590;19.022;2022-09-01T11:57:59;1.70;;;0.98;;
27003;SDS011;14546;47.590;19.022;2022-09-01T12:00:27;1.85;;;0.93;;
27003;SDS011;14546;47.590;19.022;2022-09-01T12:02:53;1.45;;;0.98;;
27003;SDS011;14546;47.590;19.022;2022-09-01T12:05:31;1.42;;;0.90;;
27003;SDS011;14546;47.590;19.022;2022-09-01T12:07:58;6.57;;;0.90;;
27003;SDS011;14546;47.590;19.022;2022-09-01T12:10:29;1.20;;;0.90;;
27003;SDS011;14546;47.590;19.022;2022-09-01T12:13:18;2.60;;;0.70;;
27003;SDS011;14546;47.590;19.022;2022-09-01T12:15:50;3.03;;;0.77;;
27003;SDS011;14546;47.590;19.022;2022-09-01T12:18:21;1.95;;;0.90;;
27003;SDS011;14546;47.590;19.022;2022-09-01T12:20:48;6.10;;;1.10;;
27003;SDS011;14546;47.590;19.022;2022-09-01T12:23:22;0.80;;;0.80;;
27003;SDS011;14546;47.590;19.022;2022-09-01T12:25:49;2.90;;;0.93;;
27003;SDS011;14546;47.590;19.022;2022-09-01T12:28:16;4.97;;;0.80;;
27003;SDS011;14546;47.590;19.022;2022-09-01T12:30:42;2.30;;;0.98;;
27003;SDS011;14546;47.590;19.022;2022-09-01T12:33:10;2.85;;;0.70;;
27003;SDS011;14546;47.590;19.022;2022-09-01T12:35:38;3.10;;;0.73;;
27003;SDS011;14546;47.590;19.022;2022-09-01T12:40:46;2.60;;;0.80;;
27003;SDS011;14546;47.590;19.022;2022-09-01T12:43:27;2.20;;;0.90;;
27003;SDS011;14546;47.590;19.022;2022-09-01T12:45:53;2.40;;;0.80;;
27003;SDS011;14546;47.590;19.022;2022-09-01T12:48:28;1.48;;;0.70;;
27003;SDS011;14546;47.590;19.022;2022-09-01T12:50:56;3.30;;;0.90;;
27003;SDS011;14546;47.590;19.022;2022-09-01T12:53:24;4.15;;;0.68;;
27003;SDS011;14546;47.590;19.022;2022-09-01T12:56:09;2.83;;;1.02;;
27003;SDS011;14546;47.590;19.022;2022-09-01T12:58:42;1.98;;;0.70;;
27003;SDS011;14546;47.590;19.022;2022-09-01T13:01:22;3.90;;;0.95;;
27003;SDS011;14546;47.590;19.022;2022-09-01T13:06:38;4.70;;;0.80;;
27003;SDS011;14546;47.590;19.022;2022-09-01T13:09:06;1.55;;;0.65;;
27003;SDS011;14546;47.590;19.022;2022-09-01T13:11:34;1.98;;;0.65;;
27003;SDS011;14546;47.590;19.022;2022-09-01T13:14:04;3.70;;;0.70;;
27003;SDS011;14546;47.590;19.022;2022-09-01T13:16:44;4.07;;;0.70;;
27003;SDS011;14546;47.590;19.022;2022-09-01T13:22:21;1.33;;;0.85;;
27003;SDS011;14546;47.590;19.022;2022-09-01T13:25:12;2.47;;;0.95;;
27003;SDS011;14546;47.590;19.022;2022-09-01T13:27:55;2.58;;;0.60;;
27003;SDS011;14546;47.590;19.022;2022-09-01T13:31:02;2.35;;;0.70;;
27003;SDS011;14546;47.590;19.022;2022-09-01T13:33:35;1.52;;;0.88;;
27003;SDS011;14546;47.590;19.022;2022-09-01T13:36:19;1.90;;;0.70;;
27003;SDS011;14546;47.590;19.022;2022-09-01T13:38:48;0.80;;;0.70;;
27003;SDS011;14546;47.590;19.022;2022-09-01T13:41:15;2.15;;;0.90;;
27003;SDS011;14546;47.590;19.022;2022-09-01T13:43:45;2.88;;;1.08;;
27003;SDS011;14546;47.590;19.022;2022-09-01T13:46:16;0.77;;;0.60;;
27003;SDS011;14546;47.590;19.022;2022-09-01T13:48:50;5.13;;;1.10;;
27003;SDS011;14546;47.590;19.022;2022-09-01T13:51:25;0.98;;;0.77;;
27003;SDS011;14546;47.590;19.022;2022-09-01T13:53:58;4.45;;;0.60;;
27003;SDS011;14546;47.590;19.022;2022-09-01T13:56:32;4.93;;;0.80;;
27003;SDS011;14546;47.590;19.022;2022-09-01T13:59:05;2.95;;;0.75;;
27003;SDS011;14546;47.590;19.022;2022-09-01T14:01:38;1.50;;;0.80;;
27003;SDS011;14546;47.590;19.022;2022-09-01T14:04:28;3.75;;;0.80;;
27003;SDS011;14546;47.590;19.022;2022-09-01T14:07:05;2.38;;;0.93;;
27003;SDS011;14546;47.590;19.022;2022-09-01T14:09:40;1.33;;;0.77;;
27003;SDS011;14546;47.590;19.022;2022-09-01T14:12:14;0.68;;;0.60;;
27003;SDS011;14546;47.590;19.022;2022-09-01T14:14:41;2.47;;;0.80;;
27003;SDS011;14546;47.590;19.022;2022-09-01T14:17:14;1.88;;;0.70;;
27003;SDS011;14546;47.590;19.022;2022-09-01T14:22:59;2.40;;;0.75;;
27003;SDS011;14546;47.590;19.022;2022-09-01T14:25:28;4.65;;;1.15;;
27003;SDS011;14546;47.590;19.022;2022-09-01T14:28:25;0.70;;;0.55;;
27003;SDS011;14546;47.590;19.022;2022-09-01T14:31:06;0.95;;;0.80;;
27003;SDS011;14546;47.590;19.022;2022-09-01T14:33:38;1.83;;;0.60;;
27003;SDS011;14546;47.590;19.022;2022-09-01T14:36:19;1.70;;;0.90;;
27003;SDS011;14546;47.590;19.022;2022-09-01T14:39:06;2.70;;;0.80;;
27003;SDS011;14546;47.590;19.022;2022-09-01T14:41:47;2.55;;;1.15;;
27003;SDS011;14546;47.590;19.022;2022-09-01T14:44:14;1.92;;;0.82;;
27003;SDS011;14546;47.590;19.022;2022-09-01T14:46:58;1.98;;;0.80;;
27003;SDS011;14546;47.590;19.022;2022-09-01T14:49:51;1.20;;;0.90;;
27003;SDS011;14546;47.590;19.022;2022-09-01T14:55:31;1.80;;;0.80;;
27003;SDS011;14546;47.590;19.022;2022-09-01T14:58:24;1.48;;;0.70;;
27003;SDS011;14546;47.590;19.022;2022-09-01T15:01:11;2.85;;;0.82;;
27003;SDS011;14546;47.590;19.022;2022-09-01T15:04:06;4.55;;;1.00;;
27003;SDS011;14546;47.590;19.022;2022-09-01T15:09:31;1.52;;;0.60;;
27003;SDS011;14546;47.590;19.022;2022-09-01T15:12:19;2.05;;;1.00;;
27003;SDS011;14546;47.590;19.022;2022-09-01T15:15:02;1.83;;;0.60;;
27003;SDS011;14546;47.590;19.022;2022-09-01T15:17:29;3.22;;;0.73;;
27003;SDS011;14546;47.590;19.022;2022-09-01T15:19:57;3.38;;;1.00;;
27003;SDS011;14546;47.590;19.022;2022-09-01T15:22:50;0.75;;;0.65;;
27003;SDS011;14546;47.590;19.022;2022-09-01T15:25:37;5.32;;;1.23;;
27003;SDS011;14546;47.590;19.022;2022-09-01T15:28:25;7.63;;;0.90;;
27003;SDS011;14546;47.590;19.022;2022-09-01T15:34:10;1.67;;;0.80;;
27003;SDS011;14546;47.590;19.022;2022-09-01T15:39:52;4.45;;;1.33;;
27003;SDS011;14546;47.590;19.022;2022-09-01T15:42:26;1.65;;;0.98;;
27003;SDS011;14546;47.590;19.022;2022-09-01T15:45:27;1.20;;;0.80;;
27003;SDS011;14546;47.590;19.022;2022-09-01T15:47:55;2.10;;;1.13;;
27003;SDS011;14546;47.590;19.022;2022-09-01T15:53:25;2.43;;;0.80;;
27003;SDS011;14546;47.590;19.022;2022-09-01T15:56:15;5.80;;;0.90;;
27003;SDS011;14546;47.590;19.022;2022-09-01T15:58:42;6.40;;;1.10;;
27003;SDS011;14546;47.590;19.022;2022-09-01T16:01:12;0.75;;;0.70;;
27003;SDS011;14546;47.590;19.022;2022-09-01T16:03:38;2.00;;;0.80;;
27003;SDS011;14546;47.590;19.022;2022-09-01T16:06:04;16.83;;;1.25;;
27003;SDS011;14546;47.590;19.022;2022-09-01T16:08:31;5.78;;;1.30;;
27003;SDS011;14546;47.590;19.022;2022-09-01T16:10:57;5.45;;;1.25;;
27003;SDS011;14546;47.590;19.022;2022-09-01T16:13:23;8.70;;;1.30;;
27003;SDS011;14546;47.590;19.022;2022-09-01T16:24:12;8.45;;;1.13;;
27003;SDS011;14546;47.590;19.022;2022-09-01T16:26:38;4.38;;;1.20;;
27003;SDS011;14546;47.590;19.022;2022-09-01T16:29:11;6.28;;;1.05;;
27003;SDS011;14546;47.590;19.022;2022-09-01T16:31:40;2.20;;;0.90;;
27003;SDS011;14546;47.590;19.022;2022-09-01T16:34:13;2.70;;;0.73;;
27003;SDS011;14546;47.590;19.022;2022-09-01T16:42:32;2.20;;;0.68;;
27003;SDS011;14546;47.590;19.022;2022-09-01T16:55:42;2.55;;;1.00;;
27003;SDS011;14546;47.590;19.022;2022-09-01T17:06:31;4.15;;;0.90;;
27003;SDS011;14546;47.590;19.022;2022-09-01T17:09:09;4.13;;;0.93;;
27003;SDS011;14546;47.590;19.022;2022-09-01T17:11:53;1.45;;;0.80;;
27003;SDS011;14546;47.590;19.022;2022-09-01T17:14:35;3.40;;;0.90;;
27003;SDS011;14546;47.590;19.022;2022-09-01T17:17:06;1.08;;;0.85;;
27003;SDS011;14546;47.590;19.022;2022-09-01T17:19:35;3.72;;;0.90;;
27003;SDS011;14546;47.590;19.022;2022-09-01T17:22:05;1.52;;;1.02;;
27003;SDS011;14546;47.590;19.022;2022-09-01T17:27:17;3.67;;;1.20;;
27003;SDS011;14546;47.590;19.022;2022-09-01T17:40:23;5.47;;;1.40;;
27003;SDS011;14546;47.590;19.022;2022-09-01T17:45:31;5.82;;;1.52;;
27003;SDS011;14546;47.590;19.022;2022-09-01T17:53:07;1.52;;;1.10;;
27003;SDS011;14546;47.590;19.022;2022-09-01T18:03:38;3.28;;;1.63;;
27003;SDS011;14546;47.590;19.022;2022-09-01T18:09:03;5.90;;;1.50;;
27003;SDS011;14546;47.590;19.022;2022-09-01T18:14:14;5.00;;;1.30;;
27003;SDS011;14546;47.590;19.022;2022-09-01T18:16:46;9.98;;;1.48;;
27003;SDS011;14546;47.590;19.022;2022-09-01T18:19:34;3.83;;;1.00;;
27003;SDS011;14546;47.590;19.022;2022-09-01T18:22:06;3.67;;;1.40;;
27003;SDS011;14546;47.590;19.022;2022-09-01T18:24:52;3.60;;;1.27;;
27003;SDS011;14546;47.590;19.022;2022-09-01T18:29:45;3.70;;;1.25;;
27003;SDS011;14546;47.590;19.022;2022-09-01T18:37:48;3.60;;;1.30;;
27003;SDS011;14546;47.590;19.022;2022-09-01T18:40:25;2.03;;;1.05;;
27003;SDS011;14546;47.590;19.022;2022-09-01T18:45:43;1.63;;;1.30;;
27003;SDS011;14546;47.590;19.022;2022-09-01T18:50:54;6.47;;;1.60;;
27003;SDS011;14546;47.590;19.022;2022-09-01T18:58:28;3.60;;;1.40;;
27003;SDS011;14546;47.590;19.022;2022-09-01T19:01:02;3.40;;;1.33;;
27003;SDS011;14546;47.590;19.022;2022-09-01T19:03:40;6.60;;;1.77;;
27003;SDS011;14546;47.590;19.022;2022-09-01T19:22:14;5.97;;;1.52;;
27003;SDS011;14546;47.590;19.022;2022-09-01T19:24:52;4.68;;;1.35;;
27003;SDS011;14546;47.590;19.022;2022-09-01T19:27:54;2.35;;;1.17;;
27003;SDS011;14546;47.590;19.022;2022-09-01T19:30:26;3.67;;;1.50;;
27003;SDS011;14546;47.590;19.022;2022-09-01T19:32:52;6.72;;;1.98;;
27003;SDS011;14546;47.590;19.022;2022-09-01T19:35:20;4.00;;;1.20;;
27003;SDS011;14546;47.590;19.022;2022-09-01T19:37:45;3.33;;;1.50;;
27003;SDS011;14546;47.590;19.022;2022-09-01T19:40:14;4.53;;;1.60;;
27003;SDS011;14546;47.590;19.022;2022-09-01T19:42:44;6.07;;;1.80;;
27003;SDS011;14546;47.590;19.022;2022-09-01T19:45:35;5.60;;;1.63;;
27003;SDS011;14546;47.590;19.022;2022-09-01T19:51:04;5.40;;;1.70;;
27003;SDS011;14546;47.590;19.022;2022-09-01T19:56:10;6.40;;;2.28;;
27003;SDS011;14546;47.590;19.022;2022-09-01T20:01:38;3.33;;;1.58;;
27003;SDS011;14546;47.590;19.022;2022-09-01T20:04:19;19.48;;;3.55;;
27003;SDS011;14546;47.590;19.022;2022-09-01T20:07:05;2.35;;;1.60;;
27003;SDS011;14546;47.590;19.022;2022-09-01T20:09:38;4.80;;;1.92;;
27003;SDS011;14546;47.590;19.022;2022-09-01T20:12:20;1.45;;;1.30;;
27003;SDS011;14546;47.590;19.022;2022-09-01T20:17:47;2.40;;;1.05;;
27003;SDS011;14546;47.590;19.022;2022-09-01T20:20:15;4.53;;;1.35;;
27003;SDS011;14546;47.590;19.022;2022-09-01T20:22:47;4.88;;;1.20;;
27003;SDS011;14546;47.590;19.022;2022-09-01T20:25:23;1.83;;;1.20;;
27003;SDS011;14546;47.590;19.022;2022-09-01T20:28:18;3.42;;;1.10;;
27003;SDS011;14546;47.590;19.022;2022-09-01T20:30:55;3.13;;;1.10;;
27003;SDS011;14546;47.590;19.022;2022-09-01T20:33:35;2.60;;;1.20;;
27003;SDS011;14546;47.590;19.022;2022-09-01T20:41:36;3.53;;;1.17;;
27003;SDS011;14546;47.590;19.022;2022-09-01T20:44:11;3.08;;;1.52;;
27003;SDS011;14546;47.590;19.022;2022-09-01T20:46:44;5.05;;;1.38;;
27003;SDS011;14546;47.590;19.022;2022-09-01T20:49:10;7.97;;;1.17;;
27003;SDS011;14546;47.590;19.022;2022-09-01T20:51:42;4.35;;;1.40;;
27003;SDS011;14546;47.590;19.022;2022-09-01T20:54:34;7.57;;;1.20;;
27003;SDS011;14546;47.590;19.022;2022-09-01T20:57:22;3.22;;;1.05;;